createdAt,value
2024-02-02T00:00:42.970Z,4.23
2024-02-02T00:03:10.203Z,4.10
2024-02-02T00:05:37.127Z,4.30
2024-02-02T00:08:04.180Z,3.67
2024-02-02T00:10:31.150Z,3.50
2024-02-02T00:12:58.096Z,3.60
2024-02-02T00:15:25.293Z,4.00
2024-02-02T00:17:52.448Z,4.23
2024-02-02T00:20:19.571Z,4.47
2024-02-02T00:22:47.604Z,4.13
2024-02-02T00:25:14.511Z,4.00
2024-02-02T00:27:41.345Z,4.13
2024-02-02T00:30:08.573Z,3.23
2024-02-02T00:32:35.756Z,3.70
2024-02-02T00:35:03.244Z,3.70
2024-02-02T00:37:30.187Z,3.63
2024-02-02T00:39:57.066Z,4.13
2024-02-02T00:42:23.944Z,3.87
2024-02-02T00:44:50.968Z,3.60
2024-02-02T00:47:17.822Z,4.07
2024-02-02T00:49:44.917Z,3.97
2024-02-02T00:52:11.820Z,3.77
2024-02-02T00:54:38.694Z,4.40
2024-02-02T00:57:05.770Z,3.67
2024-02-02T00:59:32.696Z,4.37
2024-02-02T01:01:59.628Z,3.87
2024-02-02T01:04:26.557Z,3.63
2024-02-02T01:06:53.660Z,4.07
2024-02-02T01:09:20.658Z,3.63
2024-02-02T01:11:48.996Z,4.47
2024-02-02T01:14:17.399Z,3.83
2024-02-02T01:16:44.294Z,4.33
2024-02-02T01:19:11.296Z,3.93
2024-02-02T01:21:38.382Z,3.70
2024-02-02T01:24:05.295Z,4.17
2024-02-02T01:26:32.253Z,2.97
2024-02-02T01:28:59.273Z,3.30
2024-02-02T01:31:26.113Z,3.63
2024-02-02T01:33:53.232Z,3.40
2024-02-02T01:36:20.297Z,3.70
2024-02-02T01:38:51.934Z,3.77
2024-02-02T01:41:19.309Z,3.50
2024-02-02T01:43:46.227Z,4.23
2024-02-02T01:46:16.197Z,3.30
2024-02-02T01:48:43.319Z,3.20
2024-02-02T01:51:10.438Z,2.90
2024-02-02T01:53:37.295Z,3.03
2024-02-02T01:56:04.849Z,3.17
2024-02-02T01:58:32.322Z,3.67
2024-02-02T02:00:59.174Z,3.20
2024-02-02T02:03:26.114Z,3.87
2024-02-02T02:05:53.645Z,3.23
2024-02-02T02:08:20.803Z,3.20
2024-02-02T02:10:47.801Z,3.37
2024-02-02T02:13:14.836Z,3.50
2024-02-02T02:15:41.895Z,4.10
2024-02-02T02:18:08.914Z,3.20
2024-02-02T02:20:35.874Z,3.20
2024-02-02T02:23:03.285Z,2.70
2024-02-02T02:25:30.288Z,3.30
2024-02-02T02:27:57.264Z,3.57
2024-02-02T02:30:24.591Z,3.73
2024-02-02T02:32:51.629Z,3.73
2024-02-02T02:35:18.591Z,3.43
2024-02-02T02:37:45.485Z,3.20
2024-02-02T02:40:12.700Z,2.80
2024-02-02T02:42:39.631Z,3.57
2024-02-02T02:45:06.803Z,4.00
2024-02-02T02:47:33.839Z,3.03
2024-02-02T02:50:00.816Z,3.33
2024-02-02T02:52:27.744Z,3.30
2024-02-02T02:54:54.640Z,3.67
2024-02-02T02:57:22.209Z,4.13
2024-02-02T02:59:49.125Z,4.60
2024-02-02T03:02:16.018Z,3.73
2024-02-02T03:04:42.842Z,2.60
2024-02-02T03:07:09.976Z,3.47
2024-02-02T03:09:38.379Z,3.03
2024-02-02T03:12:05.474Z,3.07
2024-02-02T03:14:32.687Z,2.73
2024-02-02T03:16:59.559Z,3.30
2024-02-02T03:19:26.569Z,3.30
2024-02-02T03:21:53.617Z,2.80
2024-02-02T03:24:20.513Z,3.17
2024-02-02T03:26:47.401Z,3.40
2024-02-02T03:29:14.466Z,3.50
2024-02-02T03:31:41.363Z,2.97
2024-02-02T03:34:08.324Z,3.00
2024-02-02T03:36:35.429Z,3.40
2024-02-02T03:39:02.337Z,2.97
2024-02-02T03:41:29.236Z,2.87
2024-02-02T03:43:57.948Z,2.57
2024-02-02T03:46:25.005Z,2.93
2024-02-02T03:48:53.438Z,4.70
2024-02-02T03:51:20.462Z,4.73
2024-02-02T03:53:47.351Z,4.30
2024-02-02T03:56:14.296Z,4.50
2024-02-02T03:58:41.175Z,3.93
2024-02-02T04:01:08.129Z,4.60
2024-02-02T04:03:35.492Z,3.53
2024-02-02T04:06:02.465Z,3.60
2024-02-02T04:08:29.824Z,3.63
2024-02-02T04:10:56.880Z,3.70
2024-02-02T04:13:23.829Z,3.40
2024-02-02T04:15:50.792Z,5.87
2024-02-02T04:18:17.887Z,16.93
2024-02-02T04:20:44.896Z,8.83
2024-02-02T04:23:11.883Z,3.47
2024-02-02T04:25:38.888Z,3.30
2024-02-02T04:28:06.825Z,3.30
2024-02-02T04:30:37.134Z,3.53
2024-02-02T04:33:05.125Z,3.03
2024-02-02T04:35:36.409Z,3.10
2024-02-02T04:38:04.010Z,3.17
2024-02-02T04:40:30.868Z,4.73
2024-02-02T04:42:58.189Z,3.33
2024-02-02T04:45:25.959Z,2.87
2024-02-02T04:47:53.002Z,2.53
2024-02-02T04:50:20.107Z,2.97
2024-02-02T04:52:47.038Z,2.43
2024-02-02T04:55:13.947Z,2.50
2024-02-02T04:57:40.813Z,2.70
2024-02-02T05:00:08.994Z,2.73
2024-02-02T05:02:35.937Z,2.20
2024-02-02T05:05:02.792Z,3.43
2024-02-02T05:07:30.170Z,1.90
2024-02-02T05:09:57.076Z,2.23
2024-02-02T05:12:24.151Z,2.93
2024-02-02T05:14:51.176Z,2.57
2024-02-02T05:17:18.151Z,4.40
2024-02-02T05:19:45.143Z,1.57
2024-02-02T05:22:12.071Z,3.20
2024-02-02T05:24:45.278Z,2.20
2024-02-02T05:27:14.061Z,1.97
2024-02-02T05:29:41.149Z,1.90
2024-02-02T05:32:08.087Z,1.87
2024-02-02T05:34:35.404Z,2.03
2024-02-02T05:37:02.434Z,2.53
2024-02-02T05:39:30.068Z,2.97
2024-02-02T05:41:58.903Z,3.40
2024-02-02T05:44:25.843Z,4.33
2024-02-02T05:46:52.789Z,7.20
2024-02-02T05:49:19.712Z,6.97
2024-02-02T05:51:46.813Z,2.57
2024-02-02T05:54:13.822Z,3.30
2024-02-02T05:56:40.871Z,4.47
2024-02-02T05:59:07.724Z,5.17
2024-02-02T06:01:34.769Z,4.63
2024-02-02T06:04:01.777Z,3.80
2024-02-02T06:06:28.823Z,3.53
2024-02-02T06:08:59.805Z,4.20
2024-02-02T06:11:27.466Z,3.70
2024-02-02T06:13:56.784Z,2.50
2024-02-02T06:16:23.826Z,2.83
2024-02-02T06:18:51.017Z,2.50
2024-02-02T06:21:18.227Z,1.90
2024-02-02T06:23:45.096Z,2.60
2024-02-02T06:26:12.273Z,1.87
2024-02-02T06:28:39.309Z,2.30
2024-02-02T06:31:06.216Z,2.20
2024-02-02T06:33:33.294Z,2.03
2024-02-02T06:36:00.445Z,2.67
2024-02-02T06:38:27.280Z,2.03
2024-02-02T06:40:54.259Z,3.27
2024-02-02T06:43:21.304Z,2.97
2024-02-02T06:45:49.443Z,3.10
2024-02-02T06:48:16.837Z,3.60
2024-02-02T06:50:45.722Z,3.73
2024-02-02T06:53:13.162Z,3.33
2024-02-02T06:55:40.090Z,2.87
2024-02-02T06:58:15.925Z,2.73
2024-02-02T07:00:43.500Z,2.80
2024-02-02T07:03:10.534Z,2.83
2024-02-02T07:05:37.625Z,2.50
2024-02-02T07:08:04.766Z,3.30
2024-02-02T07:10:31.645Z,4.47
2024-02-02T07:13:02.735Z,4.10
2024-02-02T07:15:32.376Z,5.57
2024-02-02T07:18:00.149Z,4.73
2024-02-02T07:20:27.314Z,4.70
2024-02-02T07:22:55.573Z,5.13
2024-02-02T07:25:23.554Z,5.17
2024-02-02T07:27:54.290Z,5.23
2024-02-02T07:30:30.276Z,6.27
2024-02-02T07:32:57.572Z,7.97
2024-02-02T07:35:33.203Z,5.60
2024-02-02T07:38:03.948Z,5.57
2024-02-02T07:40:46.142Z,5.00
2024-02-02T07:43:13.012Z,6.13
2024-02-02T07:45:39.970Z,4.77
2024-02-02T07:48:07.188Z,5.20
2024-02-02T07:50:35.943Z,4.57
2024-02-02T07:53:02.990Z,3.77
2024-02-02T07:55:30.044Z,4.53
2024-02-02T07:57:56.840Z,4.40
2024-02-02T08:00:23.789Z,3.60
2024-02-02T08:02:51.010Z,3.87
2024-02-02T08:05:17.886Z,4.17
2024-02-02T08:07:44.848Z,4.00
2024-02-02T08:10:11.724Z,3.40
2024-02-02T08:12:39.046Z,4.23
2024-02-02T08:15:06.069Z,3.93
2024-02-02T08:17:33.028Z,2.97
2024-02-02T08:20:00.009Z,3.73
2024-02-02T08:22:26.973Z,3.40
2024-02-02T08:24:53.816Z,4.00
2024-02-02T08:27:21.228Z,5.37
2024-02-02T08:29:50.275Z,3.70
2024-02-02T08:32:17.228Z,4.00
2024-02-02T08:34:44.222Z,4.00
2024-02-02T08:37:11.266Z,3.93
2024-02-02T08:39:38.338Z,3.50
2024-02-02T08:42:09.670Z,3.97
2024-02-02T08:44:36.885Z,4.23
2024-02-02T08:47:03.919Z,4.20
2024-02-02T08:49:46.244Z,4.07
2024-02-02T08:52:13.800Z,3.50
2024-02-02T08:54:49.815Z,4.10
2024-02-02T08:57:21.541Z,3.87
2024-02-02T08:59:53.898Z,3.57
2024-02-02T09:02:36.188Z,3.53
2024-02-02T09:05:09.285Z,4.77
2024-02-02T09:07:36.232Z,3.80
2024-02-02T09:10:21.535Z,4.47
2024-02-02T09:12:50.459Z,3.77
2024-02-02T09:15:19.020Z,3.63
2024-02-02T09:17:45.940Z,3.20
2024-02-02T09:20:19.740Z,3.77
2024-02-02T09:22:46.603Z,3.70
2024-02-02T09:25:21.804Z,3.23
2024-02-02T09:27:48.857Z,4.43
2024-02-02T09:30:21.619Z,3.97
2024-02-02T09:32:48.683Z,4.70
2024-02-02T09:35:27.851Z,4.30
2024-02-02T09:37:54.795Z,4.50
2024-02-02T09:40:40.367Z,4.83
2024-02-02T09:43:07.727Z,4.40
2024-02-02T09:45:40.720Z,4.27
2024-02-02T09:48:10.956Z,4.70
2024-02-02T09:50:59.625Z,4.17
2024-02-02T09:53:34.218Z,3.93
2024-02-02T09:56:01.049Z,4.17
2024-02-02T09:58:47.012Z,3.67
2024-02-02T10:01:17.066Z,4.93
2024-02-02T10:04:03.026Z,3.90
2024-02-02T10:06:30.027Z,3.67
2024-02-02T10:08:59.205Z,3.17
2024-02-02T10:11:36.932Z,4.23
2024-02-02T10:14:16.127Z,3.90
2024-02-02T10:16:43.082Z,3.20
2024-02-02T10:19:28.792Z,3.30
2024-02-02T10:21:55.814Z,3.20
2024-02-02T10:24:28.831Z,5.60
2024-02-02T10:26:58.431Z,3.70
2024-02-02T10:29:26.026Z,3.90
2024-02-02T10:32:00.666Z,4.60
2024-02-02T10:34:34.856Z,4.00
2024-02-02T10:37:01.930Z,6.63
2024-02-02T10:39:38.125Z,10.90
2024-02-02T10:42:31.506Z,9.83
2024-02-02T10:45:09.146Z,6.00
2024-02-02T10:47:39.446Z,5.10
2024-02-02T10:50:06.545Z,3.37
2024-02-02T10:52:36.651Z,4.13
2024-02-02T10:55:18.855Z,4.07
2024-02-02T10:57:45.739Z,4.53
2024-02-02T11:00:25.686Z,3.90
2024-02-02T11:02:53.799Z,3.80
2024-02-02T11:05:20.671Z,4.30
2024-02-02T11:07:54.024Z,3.57
2024-02-02T11:10:22.536Z,2.97
2024-02-02T11:12:58.954Z,3.23
2024-02-02T11:15:35.288Z,3.20
2024-02-02T11:18:02.517Z,2.67
2024-02-02T11:20:39.155Z,3.93
2024-02-02T11:23:05.998Z,3.70
2024-02-02T11:25:53.527Z,4.33
2024-02-02T11:28:20.351Z,5.63
2024-02-02T11:30:57.119Z,3.50
2024-02-02T11:33:27.163Z,3.93
2024-02-02T11:35:57.303Z,3.67
2024-02-02T11:38:44.405Z,4.83
2024-02-02T11:41:14.855Z,3.67
2024-02-02T11:43:42.594Z,3.57
2024-02-02T11:46:10.201Z,2.73
2024-02-02T11:48:39.830Z,3.37
2024-02-02T11:51:08.368Z,3.87
2024-02-02T11:53:39.885Z,4.70
2024-02-02T11:56:25.783Z,3.57
2024-02-02T11:58:59.087Z,3.77
2024-02-02T12:01:34.722Z,3.90
2024-02-02T12:04:22.175Z,3.23
2024-02-02T12:06:55.516Z,3.00
2024-02-02T12:09:43.761Z,2.73
2024-02-02T12:12:14.189Z,3.70
2024-02-02T12:14:44.217Z,3.70
2024-02-02T12:17:14.380Z,3.87
2024-02-02T12:19:41.622Z,3.50
2024-02-02T12:22:08.656Z,4.47
2024-02-02T12:24:36.115Z,4.00
2024-02-02T12:27:04.851Z,3.17
2024-02-02T12:29:31.820Z,4.13
2024-02-02T12:31:58.660Z,3.10
2024-02-02T12:34:25.802Z,2.83
2024-02-02T12:36:52.849Z,3.80
2024-02-02T12:39:19.815Z,3.77
2024-02-02T12:41:47.117Z,3.77
2024-02-02T12:44:14.094Z,3.90
2024-02-02T12:46:48.753Z,4.40
2024-02-02T12:49:16.061Z,4.07
2024-02-02T12:51:45.239Z,4.33
2024-02-02T12:54:12.277Z,4.70
2024-02-02T12:56:41.372Z,3.73
2024-02-02T12:59:12.597Z,3.73
2024-02-02T13:01:39.731Z,6.00
2024-02-02T13:04:06.896Z,3.63
2024-02-02T13:06:34.598Z,4.10
2024-02-02T13:09:19.684Z,4.20
2024-02-02T13:11:47.278Z,3.73
2024-02-02T13:14:14.506Z,3.77
2024-02-02T13:16:41.461Z,3.97
2024-02-02T13:19:28.335Z,3.67
2024-02-02T13:22:02.029Z,3.73
2024-02-02T13:24:28.997Z,4.50
2024-02-02T13:27:06.202Z,6.50
2024-02-02T13:29:37.080Z,6.30
2024-02-02T13:32:05.192Z,4.80
2024-02-02T13:34:32.540Z,5.93
2024-02-02T13:37:03.695Z,4.87
2024-02-02T13:39:30.716Z,4.87
2024-02-02T13:42:01.586Z,4.93
2024-02-02T13:44:28.550Z,4.93
2024-02-02T13:46:57.510Z,4.27
2024-02-02T13:49:24.900Z,4.57
2024-02-02T13:51:53.148Z,5.87
2024-02-02T13:54:20.308Z,4.13
2024-02-02T13:56:47.362Z,6.60
2024-02-02T13:59:20.490Z,5.60
2024-02-02T14:01:47.498Z,4.47
2024-02-02T14:04:15.186Z,6.33
2024-02-02T14:06:42.271Z,6.50
2024-02-02T14:09:10.071Z,7.03
2024-02-02T14:11:39.416Z,6.07
2024-02-02T14:14:07.149Z,6.37
2024-02-02T14:16:34.273Z,6.87
2024-02-02T14:19:02.355Z,6.03
2024-02-02T14:21:31.415Z,9.30
2024-02-02T14:24:06.097Z,7.20
2024-02-02T14:26:33.041Z,8.50
2024-02-02T14:29:03.275Z,8.40
2024-02-02T14:31:31.779Z,6.17
2024-02-02T14:33:58.922Z,9.13
2024-02-02T14:36:25.851Z,6.40
2024-02-02T14:38:52.821Z,7.17
2024-02-02T14:41:19.641Z,7.13
2024-02-02T14:43:46.561Z,5.53
2024-02-02T14:46:13.482Z,5.47
2024-02-02T14:48:40.705Z,7.50
2024-02-02T14:51:07.836Z,5.70
2024-02-02T14:53:35.202Z,6.07
2024-02-02T14:56:02.108Z,9.20
2024-02-02T14:58:30.048Z,8.53
2024-02-02T15:00:58.258Z,9.00
2024-02-02T15:03:25.272Z,11.37
2024-02-02T15:05:52.263Z,9.93
2024-02-02T15:08:19.273Z,6.40
2024-02-02T15:10:46.374Z,6.90
2024-02-02T15:13:14.376Z,5.33
2024-02-02T15:15:41.346Z,8.47
2024-02-02T15:18:08.606Z,5.20
2024-02-02T15:20:35.733Z,8.10
2024-02-02T15:23:02.775Z,7.80
2024-02-02T15:25:29.747Z,6.87
2024-02-02T15:27:56.598Z,7.73
2024-02-02T15:30:23.723Z,7.30
2024-02-02T15:32:50.661Z,7.27
2024-02-02T15:35:17.890Z,6.77
2024-02-02T15:37:44.739Z,6.57
2024-02-02T15:40:15.216Z,5.40
2024-02-02T15:42:42.343Z,5.73
2024-02-02T15:45:11.472Z,5.83
2024-02-02T15:47:38.677Z,6.43
2024-02-02T15:50:07.398Z,5.57
2024-02-02T15:52:34.428Z,5.53
2024-02-02T15:55:04.547Z,7.40
2024-02-02T15:57:31.959Z,7.93
2024-02-02T15:59:58.872Z,7.10
2024-02-02T16:02:26.523Z,8.70
2024-02-02T16:04:58.061Z,9.20
2024-02-02T16:07:25.423Z,8.07
2024-02-02T16:09:52.277Z,9.80
2024-02-02T16:12:19.326Z,7.17
2024-02-02T16:14:46.207Z,6.43
2024-02-02T16:17:13.103Z,8.23
2024-02-02T16:19:40.310Z,6.27
2024-02-02T16:22:07.566Z,5.33
2024-02-02T16:24:35.606Z,4.80
2024-02-02T16:27:03.714Z,6.63
2024-02-02T16:29:30.619Z,5.67
2024-02-02T16:31:57.480Z,4.27
2024-02-02T16:34:24.685Z,6.40
2024-02-02T16:36:51.695Z,6.40
2024-02-02T16:39:18.633Z,6.30
2024-02-02T16:41:46.948Z,5.47
2024-02-02T16:44:15.123Z,5.47
2024-02-02T16:46:42.563Z,3.43
2024-02-02T16:49:09.965Z,4.90
2024-02-02T16:51:38.045Z,5.13
2024-02-02T16:54:06.962Z,4.93
2024-02-02T16:56:33.938Z,3.03
2024-02-02T16:59:00.979Z,3.50
2024-02-02T17:01:34.978Z,4.57
2024-02-02T17:04:02.655Z,5.00
2024-02-02T17:06:30.850Z,6.23
2024-02-02T17:08:58.365Z,4.00
2024-02-02T17:11:25.381Z,4.47
2024-02-02T17:13:52.384Z,3.77
2024-02-02T17:16:20.100Z,4.17
2024-02-02T17:18:47.338Z,4.27
2024-02-02T17:21:14.339Z,4.60
2024-02-02T17:23:41.237Z,4.03
2024-02-02T17:26:14.688Z,4.80
2024-02-02T17:28:41.936Z,4.70
2024-02-02T17:31:11.843Z,5.77
2024-02-02T17:33:39.187Z,3.93
2024-02-02T17:36:10.375Z,3.70
2024-02-02T17:38:37.842Z,4.57
2024-02-02T17:41:05.136Z,4.80
2024-02-02T17:43:32.305Z,5.93
2024-02-02T17:45:59.325Z,5.90
2024-02-02T17:48:26.363Z,5.30
2024-02-02T17:50:53.544Z,4.97
2024-02-02T17:53:20.492Z,4.93
2024-02-02T17:55:47.424Z,6.57
2024-02-02T17:58:14.328Z,5.30
2024-02-02T18:00:41.305Z,5.07
2024-02-02T18:03:08.413Z,6.17
2024-02-02T18:05:35.353Z,7.70
2024-02-02T18:08:02.308Z,9.60
2024-02-02T18:10:29.194Z,9.40
2024-02-02T18:12:56.095Z,9.70
2024-02-02T18:15:23.339Z,11.03
2024-02-02T18:17:50.570Z,11.53
2024-02-02T18:20:17.662Z,13.00
2024-02-02T18:22:44.659Z,12.90
2024-02-02T18:25:11.603Z,12.63
2024-02-02T18:27:38.656Z,14.43
2024-02-02T18:30:07.806Z,14.53
2024-02-02T18:32:34.729Z,14.37
2024-02-02T18:35:01.852Z,15.17
2024-02-02T18:37:29.335Z,14.03
2024-02-02T18:39:56.792Z,13.93
2024-02-02T18:42:23.940Z,14.27
2024-02-02T18:44:51.605Z,14.53
2024-02-02T18:47:20.324Z,13.60
2024-02-02T18:49:47.875Z,13.03
2024-02-02T18:52:15.685Z,14.83
2024-02-02T18:54:43.257Z,14.10
2024-02-02T18:57:10.646Z,13.43
2024-02-02T18:59:38.500Z,12.00
2024-02-02T19:02:09.353Z,10.47
2024-02-02T19:04:37.724Z,9.67
2024-02-02T19:07:06.597Z,10.43
2024-02-02T19:09:34.424Z,10.73
2024-02-02T19:12:01.538Z,9.67
2024-02-02T19:14:30.093Z,10.20
2024-02-02T19:16:57.436Z,9.13
2024-02-02T19:19:25.501Z,9.40
2024-02-02T19:21:53.501Z,9.53
2024-02-02T19:24:20.931Z,8.70
2024-02-02T19:26:49.469Z,9.20
2024-02-02T19:29:17.013Z,10.17
2024-02-02T19:31:43.888Z,8.43
2024-02-02T19:34:11.010Z,8.73
2024-02-02T19:36:38.123Z,9.03
2024-02-02T19:39:05.130Z,8.70
2024-02-02T19:41:33.169Z,10.07
2024-02-02T19:44:00.509Z,10.40
2024-02-02T19:46:28.383Z,9.23
2024-02-02T19:48:55.840Z,7.77
2024-02-02T19:51:23.908Z,8.90
2024-02-02T19:53:51.050Z,10.13
2024-02-02T19:56:19.669Z,8.83
2024-02-02T19:58:47.310Z,8.87
2024-02-02T20:01:15.527Z,9.37
2024-02-02T20:03:43.925Z,8.53
2024-02-02T20:06:11.978Z,9.73
2024-02-02T20:08:39.798Z,7.97
2024-02-02T20:11:11.279Z,9.13
2024-02-02T20:13:38.249Z,7.17
2024-02-02T20:16:05.691Z,8.07
2024-02-02T20:18:32.999Z,7.13
2024-02-02T20:21:00.299Z,9.77
2024-02-02T20:23:27.789Z,10.23
2024-02-02T20:25:54.882Z,9.73
2024-02-02T20:28:21.789Z,8.37
2024-02-02T20:30:49.616Z,9.97
2024-02-02T20:33:16.850Z,8.50
2024-02-02T20:35:45.069Z,8.67
2024-02-02T20:38:12.289Z,8.23
2024-02-02T20:40:39.399Z,9.47
2024-02-02T20:43:06.692Z,5.87
2024-02-02T20:45:33.810Z,7.30
2024-02-02T20:48:02.015Z,7.97
2024-02-02T20:50:29.082Z,8.37
2024-02-02T20:52:55.896Z,10.03
2024-02-02T20:55:22.882Z,8.57
2024-02-02T20:57:49.856Z,9.57
2024-02-02T21:00:18.617Z,9.83
2024-02-02T21:02:45.590Z,10.63
2024-02-02T21:05:12.705Z,9.80
2024-02-02T21:07:40.393Z,7.63
2024-02-02T21:10:07.917Z,9.33
2024-02-02T21:12:35.293Z,6.07
2024-02-02T21:15:02.320Z,7.93
2024-02-02T21:17:29.845Z,5.47
2024-02-02T21:19:58.396Z,7.73
2024-02-02T21:22:25.809Z,4.37
2024-02-02T21:24:52.680Z,6.23
2024-02-02T21:27:19.813Z,7.13
2024-02-02T21:29:47.002Z,7.77
2024-02-02T21:32:14.078Z,5.83
2024-02-02T21:34:41.201Z,3.70
2024-02-02T21:37:10.817Z,6.90
2024-02-02T21:39:38.582Z,7.87
2024-02-02T21:42:05.821Z,7.20
2024-02-02T21:44:37.159Z,3.73
2024-02-02T21:47:04.566Z,6.80
2024-02-02T21:49:31.847Z,6.10
2024-02-02T21:51:58.893Z,4.20
2024-02-02T21:54:26.002Z,6.27
2024-02-02T21:56:53.418Z,7.40
2024-02-02T21:59:21.211Z,6.10
2024-02-02T22:05:50.543Z,2.63
2024-02-02T22:08:17.626Z,5.57
2024-02-02T22:10:44.479Z,6.63
2024-02-02T22:13:11.659Z,6.67
2024-02-02T22:15:38.585Z,6.03
2024-02-02T22:18:05.923Z,6.17
2024-02-02T22:20:33.623Z,7.53
2024-02-02T22:23:01.408Z,7.10
2024-02-02T22:25:28.728Z,6.93
2024-02-02T22:27:55.845Z,6.77
2024-02-02T22:30:23.358Z,7.07
2024-02-02T22:32:50.664Z,7.97
2024-02-02T22:35:18.270Z,8.77
2024-02-02T22:37:45.682Z,8.50
2024-02-02T22:40:13.171Z,9.20
2024-02-02T22:42:40.888Z,8.90
2024-02-02T22:45:08.646Z,8.63
2024-02-02T22:47:35.850Z,9.33
2024-02-02T22:50:03.560Z,8.33
2024-02-02T22:52:30.790Z,8.27
2024-02-02T22:54:58.232Z,8.97
2024-02-02T22:57:26.403Z,9.17
2024-02-02T22:59:59.487Z,8.23
2024-02-02T23:02:29.458Z,8.87
2024-02-02T23:04:56.282Z,8.00
2024-02-02T23:07:23.597Z,9.10
2024-02-02T23:09:50.552Z,7.57
2024-02-02T23:12:17.455Z,7.67
2024-02-02T23:14:44.367Z,8.07
2024-02-02T23:17:11.257Z,7.63
2024-02-02T23:19:42.111Z,8.73
2024-02-02T23:22:11.038Z,8.87
2024-02-02T23:24:38.087Z,8.43
2024-02-02T23:27:05.111Z,8.50
2024-02-02T23:29:32.072Z,9.27
2024-02-02T23:31:59.544Z,8.53
2024-02-02T23:34:26.612Z,8.57
2024-02-02T23:36:53.720Z,8.43
2024-02-02T23:39:20.694Z,8.63
2024-02-02T23:41:47.774Z,9.30
2024-02-02T23:44:14.581Z,9.40
2024-02-02T23:46:41.605Z,10.03
2024-02-02T23:49:08.732Z,9.57
2024-02-02T23:51:36.153Z,9.67
2024-02-02T23:54:03.099Z,9.03
2024-02-02T23:56:29.972Z,9.80
2024-02-02T23:58:56.892Z,8.97
